Time;durP1;ratioP1;P1;durP2;ratioP2;P2;SDS_P1;SDS_P2;PMS_P1;PMS_P2;Temp;Humidity;BMP_temperature;BMP_pressure;BME280_temperature;BME280_humidity;BME280_pressure;Samples;Min_cycle;Max_cycle;Signal;HPM_P1;HPM_P2
2022/08/30 00:05:47;;;;;;;8.57;5.35;;;19.40;99.90;;;;;;20970374;22;20732;-79
2022/08/30 00:15:48;;;;;;;7.90;5.20;;;19.20;99.90;;;;;;20981687;28;20051;-79
2022/08/30 00:25:49;;;;;;;8.98;5.25;;;19.20;99.90;;;;;;20997559;28;20410;-79
2022/08/30 00:35:50;;;;;;;7.50;5.37;;;19.00;99.90;;;;;;20980419;28;20044;-79
2022/08/30 00:45:51;;;;;;;7.23;4.93;;;18.90;99.90;;;;;;20997874;28;20052;-79
2022/08/30 00:55:53;;;;;;;;;;;18.80;99.90;;;;;;20998882;28;20044;-79
2022/08/30 01:05:56;;;;;;;10.20;5.82;;;18.80;99.90;;;;;;20980429;28;19912;-79
2022/08/30 01:15:58;;;;;;;8.48;5.10;;;18.70;99.90;;;;;;20999842;28;20040;-79
2022/08/30 01:26:01;;;;;;;11.10;5.57;;;18.50;99.90;;;;;;20999981;28;20036;-79
2022/08/30 01:36:06;;;;;;;12.15;6.13;;;18.40;99.90;;;;;;20980279;28;20037;-79
2022/08/30 01:46:09;;;;;;;13.68;5.90;;;18.30;99.90;;;;;;20978824;28;20036;-79
2022/08/30 01:56:11;;;;;;;13.13;6.25;;;18.30;99.90;;;;;;20994812;28;20090;-79
2022/08/30 02:06:13;;;;;;;;;;;18.20;99.90;;;;;;20994776;28;20490;-80
2022/08/30 02:16:20;;;;;;;7.43;5.47;;;18.20;99.90;;;;;;20966693;28;19909;-79
2022/08/30 02:26:21;;;;;;;9.27;5.70;;;18.10;99.90;;;;;;21009009;28;20041;-80
2022/08/30 02:36:22;;;;;;;12.25;5.20;;;18.10;99.90;;;;;;21007213;28;20403;-79
2022/08/30 02:46:23;;;;;;;8.27;5.57;;;18.00;99.90;;;;;;20990710;28;20076;-80
2022/08/30 02:56:24;;;;;;;9.53;6.13;;;17.90;99.90;;;;;;21007617;28;20043;-80
2022/08/30 03:06:25;;;;;;;10.60;5.47;;;17.80;99.90;;;;;;20988023;28;20041;-80
2022/08/30 03:16:26;;;;;;;6.83;5.33;;;17.70;99.90;;;;;;21005348;28;20376;-80
2022/08/30 03:26:26;;;;;;;9.47;5.70;;;17.70;99.90;;;;;;20986236;28;20453;-79
2022/08/30 03:36:28;;;;;;;8.77;6.17;;;17.60;99.90;;;;;;21001752;28;20128;-80
2022/08/30 03:46:29;;;;;;;15.25;6.78;;;17.40;99.90;;;;;;20967587;28;20040;-80
2022/08/30 03:56:30;;;;;;;8.87;6.13;;;17.30;99.90;;;;;;20965189;28;20503;-80
2022/08/30 04:06:30;;;;;;;9.10;5.50;;;17.20;99.90;;;;;;20894550;28;20080;-80
2022/08/30 04:16:31;;;;;;;12.57;6.23;;;17.20;99.90;;;;;;20917648;28;20037;-79
2022/08/30 04:26:32;;;;;;;12.03;7.30;;;17.10;99.90;;;;;;20915028;28;20073;-78
2022/08/30 04:36:33;;;;;;;10.10;5.77;;;16.70;99.90;;;;;;20912209;28;20036;-78
2022/08/30 04:46:34;;;;;;;7.53;5.67;;;16.90;99.90;;;;;;20911466;28;20120;-78
2022/08/30 04:56:38;;;;;;;8.20;5.55;;;17.20;99.90;;;;;;20894361;28;20110;-77
2022/08/30 05:06:39;;;;;;;10.37;6.30;;;17.20;99.90;;;;;;20952283;28;20121;-77
2022/08/30 05:16:40;;;;;;;9.67;7.07;;;17.20;99.90;;;;;;20994158;28;20032;-78
2022/08/30 05:26:41;;;;;;;10.47;7.37;;;17.10;99.90;;;;;;20993965;28;20051;-78
2022/08/30 05:36:42;;;;;;;23.80;9.23;;;17.10;99.90;;;;;;20973582;28;20395;-76
2022/08/30 05:46:45;;;;;;;8.77;6.20;;;17.40;99.90;;;;;;20974022;28;20044;-77
2022/08/30 05:56:45;;;;;;;11.18;6.13;;;17.90;99.90;;;;;;21007237;28;20040;-76
2022/08/30 06:06:46;;;;;;;10.33;7.17;;;18.40;99.90;;;;;;21015174;22;20055;-75
2022/08/30 06:16:47;;;;;;;12.53;6.63;;;18.40;99.90;;;;;;21009709;28;20115;-75
2022/08/30 06:26:48;;;;;;;10.03;6.70;;;18.70;99.90;;;;;;21010576;28;20051;-74
2022/08/30 06:36:49;;;;;;;9.77;6.20;;;19.10;99.90;;;;;;21006144;28;20037;-74
2022/08/30 06:46:50;;;;;;;11.17;6.47;;;19.60;99.90;;;;;;20994488;28;20044;-75
2022/08/30 06:56:51;;;;;;;11.37;6.33;;;20.60;99.90;;;;;;20984862;28;20113;-75
2022/08/30 07:06:52;;;;;;;12.00;5.83;;;20.90;99.90;;;;;;21001266;28;20036;-75
2022/08/30 07:16:52;;;;;;;10.63;6.57;;;20.80;99.90;;;;;;21006682;28;20032;-75
2022/08/30 07:26:53;;;;;;;8.93;5.17;;;21.00;99.90;;;;;;20980750;28;20128;-75
2022/08/30 07:36:54;;;;;;;7.87;5.47;;;22.20;99.90;;;;;;20997751;28;20326;-75
2022/08/30 07:46:56;;;;;;;9.20;5.97;;;22.70;99.90;;;;;;20997000;28;20036;-75
2022/08/30 07:56:57;;;;;;;8.52;5.22;;;23.00;99.90;;;;;;20996944;28;20628;-75
2022/08/30 08:06:58;;;;;;;12.17;5.70;;;24.20;99.90;;;;;;20995479;28;20041;-75
2022/08/30 08:16:59;;;;;;;;;;;24.90;99.90;;;;;;20996996;28;20286;-75
2022/08/30 08:27:00;;;;;;;6.90;5.15;;;25.20;99.90;;;;;;20995524;28;19916;-74
2022/08/30 08:37:01;;;;;;;9.65;5.90;;;26.40;99.90;;;;;;20997487;28;20089;-74
2022/08/30 08:47:11;;;;;;;9.20;4.88;;;25.80;99.90;;;;;;20976882;28;20060;-74
2022/08/30 08:57:12;;;;;;;10.47;6.33;;;26.00;99.90;;;;;;20992307;28;20032;-74
2022/08/30 09:07:20;;;;;;;5.53;4.28;;;25.50;99.90;;;;;;20974269;28;20051;-74
2022/08/30 09:17:21;;;;;;;8.85;5.18;;;26.80;99.90;;;;;;20992240;28;20450;-73
2022/08/30 09:27:37;;;;;;;7.38;4.90;;;25.50;99.90;;;;;;20990201;28;20040;-74
2022/08/30 09:37:39;;;;;;;7.30;4.40;;;26.50;99.90;;;;;;20990842;28;20029;-74
2022/08/30 09:47:42;;;;;;;6.88;4.63;;;28.80;99.90;;;;;;20990892;28;20056;-74
2022/08/30 09:58:00;;;;;;;7.85;4.40;;;28.60;99.90;;;;;;20994608;28;20040;-75
2022/08/30 10:08:20;;;;;;;7.20;4.68;;;29.50;99.90;;;;;;20990956;28;20048;-74
2022/08/30 10:18:28;;;;;;;8.35;4.63;;;28.30;99.90;;;;;;20991139;28;20044;-75
2022/08/30 10:28:59;;;;;;;6.55;3.90;;;29.70;99.90;;;;;;20972058;28;20040;-73
2022/08/30 10:39:02;;;;;;;6.47;4.35;;;29.00;99.90;;;;;;20978984;28;20044;-73
2022/08/30 10:49:11;;;;;;;5.75;4.18;;;28.50;99.90;;;;;;21002316;28;20047;-74
2022/08/30 10:59:15;;;;;;;9.95;4.43;;;29.00;99.90;;;;;;21003026;28;20048;-74
2022/08/30 11:09:48;;;;;;;8.15;3.45;;;30.20;99.90;;;;;;21004532;28;20556;-75
2022/08/30 11:19:50;;;;;;;9.32;3.72;;;31.50;99.90;;;;;;20988263;28;20044;-75
2022/08/30 11:29:51;;;;;;;6.25;3.70;;;30.80;99.90;;;;;;21003258;28;20525;-75
2022/08/30 11:39:54;;;;;;;7.97;4.22;;;28.70;99.90;;;;;;20939427;28;20040;-75
2022/08/30 11:50:25;;;;;;;4.22;3.33;;;29.60;99.90;;;;;;20922358;28;20040;-75
2022/08/30 12:00:29;;;;;;;6.07;3.65;;;30.10;99.90;;;;;;20920903;28;20040;-76
2022/08/30 12:10:40;;;;;;;4.20;3.00;;;30.70;99.90;;;;;;20974775;22;20105;-77
2022/08/30 12:20:47;;;;;;;4.53;3.25;;;30.50;99.90;;;;;;20930885;28;20141;-77
2022/08/30 12:30:50;;;;;;;6.28;4.20;;;30.80;99.90;;;;;;20909821;28;20495;-77
2022/08/30 12:40:59;;;;;;;7.53;4.05;;;32.10;99.90;;;;;;20908908;28;20052;-78
2022/08/30 12:51:00;;;;;;;5.30;3.60;;;30.90;99.90;;;;;;20906634;28;20078;-77
2022/08/30 13:01:31;;;;;;;4.65;3.45;;;30.80;99.90;;;;;;20908465;28;20041;-77
2022/08/30 13:11:31;;;;;;;;;;;31.30;99.90;;;;;;20895333;28;20044;-77
2022/08/30 13:21:34;;;;;;;4.50;3.27;;;30.80;99.90;;;;;;20907570;28;19912;-77
2022/08/30 13:31:35;;;;;;;4.70;3.53;;;29.70;99.90;;;;;;20889075;28;20048;-78
2022/08/30 13:41:37;;;;;;;4.88;3.53;;;28.90;99.90;;;;;;20905643;28;20492;-78
2022/08/30 13:51:37;;;;;;;5.22;3.90;;;28.70;99.90;;;;;;20883668;28;20421;-77
2022/08/30 14:01:38;;;;;;;7.90;3.72;;;28.70;99.90;;;;;;20871793;28;20052;-76
2022/08/30 14:11:40;;;;;;;4.50;3.45;;;28.50;99.90;;;;;;20924214;28;20037;-77
2022/08/30 14:21:41;;;;;;;6.85;3.58;;;28.90;99.90;;;;;;20942670;28;20541;-78
2022/08/30 14:31:43;;;;;;;7.30;4.15;;;28.90;99.90;;;;;;20923101;28;20036;-77
2022/08/30 14:41:47;;;;;;;6.45;3.45;;;28.40;99.90;;;;;;20905257;28;20522;-77
2022/08/30 14:51:48;;;;;;;5.63;3.92;;;28.30;99.90;;;;;;20914739;28;20045;-76
2022/08/30 15:01:49;;;;;;;5.05;3.30;;;28.60;99.90;;;;;;20917076;28;20028;-77
2022/08/30 15:11:56;;;;;;;4.60;2.40;;;28.20;99.90;;;;;;20899829;28;20044;-77
2022/08/30 15:22:02;;;;;;;6.45;2.47;;;27.50;99.90;;;;;;20912875;28;20041;-77
2022/08/30 15:32:04;;;;;;;3.60;1.90;;;27.30;99.90;;;;;;20917092;28;20384;-78
2022/08/30 15:42:04;;;;;;;4.78;1.90;;;27.50;99.90;;;;;;20915887;28;20095;-77
2022/08/30 15:52:05;;;;;;;2.33;1.65;;;26.90;99.90;;;;;;20914422;28;20041;-77
2022/08/30 16:02:06;;;;;;;2.63;1.80;;;26.70;99.90;;;;;;20913207;28;20545;-77
2022/08/30 16:12:08;;;;;;;2.40;1.83;;;26.40;99.90;;;;;;20911834;28;20140;-76
2022/08/30 16:22:10;;;;;;;3.35;1.95;;;26.10;99.90;;;;;;20893570;28;20116;-76
2022/08/30 16:32:10;;;;;;;6.53;2.00;;;25.90;99.90;;;;;;20909690;28;20112;-77
2022/08/30 16:42:11;;;;;;;4.75;2.00;;;25.80;99.90;;;;;;20810238;28;20057;-77
2022/08/30 16:52:12;;;;;;;3.05;2.00;;;25.80;99.90;;;;;;20826805;28;20088;-77
2022/08/30 17:02:13;;;;;;;3.22;2.28;;;25.30;99.90;;;;;;20826500;28;20124;-77
2022/08/30 17:12:14;;;;;;;4.05;2.00;;;25.10;99.90;;;;;;20822812;28;20057;-77
2022/08/30 17:22:15;;;;;;;;;;;24.70;99.90;;;;;;20924967;28;20036;-77
2022/08/30 17:32:15;;;;;;;4.20;2.40;;;24.90;99.90;;;;;;20911229;28;20440;-77
2022/08/30 17:42:16;;;;;;;;;;;24.70;99.90;;;;;;20907352;28;20033;-77
2022/08/30 17:52:17;;;;;;;3.67;2.53;;;24.30;99.90;;;;;;20916951;28;19917;-77
2022/08/30 18:02:18;;;;;;;;;;;24.40;99.90;;;;;;20916513;28;20033;-78
2022/08/30 18:12:21;;;;;;;4.97;2.67;;;24.20;99.90;;;;;;21054962;22;1140422;-77
2022/08/30 18:22:21;;;;;;;11.50;4.00;;;24.00;99.90;;;;;;21081848;28;20039;-77
2022/08/30 18:32:22;;;;;;;11.27;5.07;;;22.30;99.90;;;;;;21002426;28;20040;-77
2022/08/30 18:42:23;;;;;;;10.70;5.73;;;19.70;99.90;;;;;;21005705;28;20029;-79
2022/08/30 18:52:26;;;;;;;12.77;6.00;;;18.50;99.90;;;;;;21011699;28;20028;-78
2022/08/30 19:02:27;;;;;;;9.30;4.00;;;18.20;99.90;;;;;;21011242;28;20041;-78
2022/08/30 19:12:28;;;;;;;8.13;4.80;;;18.20;99.90;;;;;;20991765;28;20044;-79
2022/08/30 19:22:29;;;;;;;9.53;4.87;;;18.20;99.90;;;;;;20991367;28;20036;-78
2022/08/30 19:32:29;;;;;;;11.40;4.63;;;18.20;99.90;;;;;;20985571;28;20119;-79
2022/08/30 19:42:30;;;;;;;4.60;3.53;;;17.40;99.90;;;;;;20968424;28;20040;-79
2022/08/30 19:52:31;;;;;;;8.20;4.30;;;17.60;99.90;;;;;;21004285;28;20063;-76
2022/08/30 20:02:33;;;;;;;7.67;4.73;;;17.70;99.90;;;;;;20983331;28;20446;-80
2022/08/30 20:12:35;;;;;;;10.80;4.70;;;17.70;99.90;;;;;;20980452;28;20040;-78
2022/08/30 20:22:36;;;;;;;7.47;4.90;;;17.80;99.90;;;;;;21000089;28;20115;-80
2022/08/30 20:32:38;;;;;;;8.87;4.90;;;18.00;99.90;;;;;;20980694;28;20094;-79
2022/08/30 20:42:42;;;;;;;8.77;4.68;;;18.10;99.90;;;;;;20978295;28;20040;-79
2022/08/30 20:52:43;;;;;;;10.07;5.85;;;18.00;99.90;;;;;;20995698;28;20059;-79
2022/08/30 21:02:44;;;;;;;8.98;6.32;;;17.90;99.90;;;;;;20993140;28;20033;-80
2022/08/30 21:12:45;;;;;;;12.55;7.53;;;17.60;99.90;;;;;;20975016;28;20071;-80
2022/08/30 21:22:46;;;;;;;8.57;5.37;;;17.30;99.90;;;;;;21017148;28;20028;-81
2022/08/30 21:32:47;;;;;;;9.10;5.33;;;17.30;99.90;;;;;;20994250;28;20132;-79
2022/08/30 21:42:48;;;;;;;7.20;4.90;;;17.40;99.90;;;;;;20985132;28;20039;-79
2022/08/30 21:52:50;;;;;;;18.13;5.87;;;17.60;99.90;;;;;;21005565;28;20033;-81
2022/08/30 22:02:51;;;;;;;5.03;3.53;;;17.70;99.90;;;;;;21005130;28;20032;-80
2022/08/30 22:12:52;;;;;;;9.13;4.20;;;17.40;99.90;;;;;;20988112;28;20082;-80
2022/08/30 22:22:53;;;;;;;9.47;4.83;;;17.40;99.90;;;;;;20991271;28;20043;-79
2022/08/30 22:32:54;;;;;;;7.37;4.67;;;17.30;99.90;;;;;;21017770;28;20548;-80
2022/08/30 22:42:55;;;;;;;8.82;5.22;;;17.50;99.90;;;;;;21007352;28;20047;-80
2022/08/30 22:52:55;;;;;;;7.33;4.90;;;17.40;99.90;;;;;;21024130;28;20506;-80
2022/08/30 23:02:56;;;;;;;7.57;4.63;;;17.40;99.90;;;;;;21005755;28;20059;-78
2022/08/30 23:12:58;;;;;;;6.30;4.37;;;17.30;99.90;;;;;;21002786;28;20045;-80
